Time;durP1;ratioP1;P1;durP2;ratioP2;P2;SDS_P1;SDS_P2;PMS_P1;PMS_P2;Temp;Humidity;BMP_temperature;BMP_pressure;BME280_temperature;BME280_humidity;BME280_pressure;Samples;Min_cycle;Max_cycle;Signal;HPM_P1;HPM_P2
2023/06/30 00:01:50;;;;;;;8.87;3.83;;;;;;;;;;5038995;28;20184;-83
2023/06/30 00:04:17;;;;;;;8.03;2.83;;;;;;;;;;5047566;28;20207;-79
2023/06/30 00:06:43;;;;;;;8.93;3.60;;;;;;;;;;5041383;28;20259;-79
2023/06/30 00:09:09;;;;;;;9.87;3.63;;;;;;;;;;5055510;28;20192;-79
2023/06/30 00:11:38;;;;;;;9.23;3.40;;;;;;;;;;5038727;28;20183;-79
2023/06/30 00:14:05;;;;;;;12.40;3.17;;;;;;;;;;5054516;28;20299;-79
2023/06/30 00:16:34;;;;;;;9.57;3.50;;;;;;;;;;5037088;28;20173;-79
2023/06/30 00:19:00;;;;;;;6.53;2.90;;;;;;;;;;5049607;28;20234;-79
2023/06/30 00:21:26;;;;;;;11.50;3.43;;;;;;;;;;5035331;28;20184;-83
2023/06/30 00:23:52;;;;;;;10.47;3.30;;;;;;;;;;5046075;28;20270;-83
2023/06/30 00:26:18;;;;;;;8.73;3.20;;;;;;;;;;5026238;28;20189;-83
2023/06/30 00:28:45;;;;;;;9.03;3.30;;;;;;;;;;5040775;28;20322;-83
2023/06/30 00:31:11;;;;;;;8.57;3.40;;;;;;;;;;5054745;28;20199;-83
2023/06/30 00:33:37;;;;;;;6.90;3.00;;;;;;;;;;5037194;28;20191;-83
2023/06/30 00:36:03;;;;;;;7.47;3.00;;;;;;;;;;5035002;28;20192;-84
2023/06/30 00:38:29;;;;;;;16.87;3.70;;;;;;;;;;5020587;28;20239;-81
2023/06/30 00:40:55;;;;;;;11.40;3.37;;;;;;;;;;5038615;28;20223;-81
2023/06/30 00:43:21;;;;;;;8.73;3.27;;;;;;;;;;5038964;28;20190;-81
2023/06/30 00:45:47;;;;;;;9.07;3.27;;;;;;;;;;5038163;28;20188;-81
2023/06/30 00:48:14;;;;;;;9.10;3.30;;;;;;;;;;5047710;28;20280;-81
2023/06/30 00:50:40;;;;;;;9.10;3.00;;;;;;;;;;5035938;28;20271;-81
2023/06/30 00:53:06;;;;;;;9.57;3.07;;;;;;;;;;5054573;28;20291;-81
2023/06/30 00:55:32;;;;;;;10.83;3.17;;;;;;;;;;5055253;28;20192;-83
2023/06/30 00:57:58;;;;;;;10.47;3.00;;;;;;;;;;5038145;28;20228;-83
2023/06/30 01:00:24;;;;;;;7.90;3.10;;;;;;;;;;5039509;28;20219;-83
2023/06/30 01:03:11;;;;;;;9.90;3.20;;;;;;;;;;5053543;28;20246;-83
2023/06/30 01:05:43;;;;;;;10.77;3.27;;;;;;;;;;5037937;28;20196;-83
2023/06/30 01:08:09;;;;;;;10.13;3.20;;;;;;;;;;5040159;28;20197;-84
2023/06/30 01:10:36;;;;;;;8.17;2.90;;;;;;;;;;5053877;28;20199;-82
2023/06/30 01:13:03;;;;;;;9.23;3.20;;;;;;;;;;5054864;28;20191;-81
2023/06/30 01:15:29;;;;;;;8.57;3.47;;;;;;;;;;5055074;28;20188;-81
2023/06/30 01:17:56;;;;;;;8.73;3.60;;;;;;;;;;5050824;28;20204;-81
2023/06/30 01:20:41;;;;;;;8.77;3.37;;;;;;;;;;5053616;28;20180;-81
2023/06/30 01:23:21;;;;;;;8.97;3.43;;;;;;;;;;5076435;22;20309;-79
2023/06/30 01:25:48;;;;;;;10.03;3.50;;;;;;;;;;5033125;28;20192;-79
2023/06/30 01:28:14;;;;;;;7.00;3.30;;;;;;;;;;5017177;28;20272;-82
2023/06/30 01:30:41;;;;;;;9.97;3.43;;;;;;;;;;5016663;28;20192;-82
2023/06/30 01:33:07;;;;;;;9.07;3.70;;;;;;;;;;5030735;28;20181;-82
2023/06/30 01:35:33;;;;;;;10.17;3.43;;;;;;;;;;5020467;28;20231;-82
2023/06/30 01:38:00;;;;;;;8.37;3.30;;;;;;;;;;5012099;28;20212;-80
2023/06/30 01:40:26;;;;;;;10.53;3.60;;;;;;;;;;5027915;28;20176;-79
2023/06/30 01:42:54;;;;;;;6.07;3.30;;;;;;;;;;5013279;28;20181;-82
2023/06/30 01:45:20;;;;;;;7.77;3.30;;;;;;;;;;5024173;28;20187;-82
2023/06/30 01:47:47;;;;;;;10.53;3.93;;;;;;;;;;5013908;28;20258;-82
2023/06/30 01:50:13;;;;;;;8.57;3.33;;;;;;;;;;5021741;28;20251;-82
2023/06/30 01:52:39;;;;;;;13.00;4.13;;;;;;;;;;5021760;28;20193;-82
2023/06/30 01:55:05;;;;;;;9.83;3.43;;;;;;;;;;5020663;28;20234;-82
2023/06/30 01:57:31;;;;;;;10.43;3.57;;;;;;;;;;5016707;28;20279;-82
2023/06/30 01:59:57;;;;;;;9.40;3.83;;;;;;;;;;5015845;28;20335;-79
2023/06/30 02:02:23;;;;;;;8.70;4.17;;;;;;;;;;5024089;28;20204;-80
2023/06/30 02:04:49;;;;;;;9.47;3.87;;;;;;;;;;5025471;28;20188;-79
2023/06/30 02:07:15;;;;;;;6.93;3.77;;;;;;;;;;5016655;28;20193;-80
2023/06/30 02:09:41;;;;;;;11.43;3.90;;;;;;;;;;5008504;28;20197;-80
2023/06/30 02:12:07;;;;;;;7.50;3.80;;;;;;;;;;5014220;28;20185;-84
2023/06/30 02:14:33;;;;;;;9.50;3.80;;;;;;;;;;5005837;28;20192;-84
2023/06/30 02:16:59;;;;;;;9.07;3.93;;;;;;;;;;5013612;28;20177;-85
2023/06/30 02:19:25;;;;;;;11.57;3.80;;;;;;;;;;5013109;28;20209;-81
2023/06/30 02:21:51;;;;;;;7.63;3.70;;;;;;;;;;5016428;28;20188;-80
2023/06/30 02:24:17;;;;;;;10.67;4.37;;;;;;;;;;5033081;28;20232;-79
2023/06/30 02:26:45;;;;;;;10.80;3.70;;;;;;;;;;5030262;28;20189;-80
2023/06/30 02:29:11;;;;;;;9.37;3.50;;;;;;;;;;5015386;28;20252;-79
2023/06/30 02:31:37;;;;;;;10.43;4.20;;;;;;;;;;5016259;28;20288;-79
2023/06/30 02:34:03;;;;;;;8.63;3.90;;;;;;;;;;5018761;28;20196;-79
2023/06/30 02:36:29;;;;;;;11.80;4.07;;;;;;;;;;5026031;28;20196;-80
2023/06/30 02:38:55;;;;;;;9.43;3.60;;;;;;;;;;5032519;28;20208;-80
2023/06/30 02:41:22;;;;;;;8.47;3.77;;;;;;;;;;5015435;28;20209;-79
2023/06/30 02:43:48;;;;;;;11.30;4.30;;;;;;;;;;5030367;28;20312;-79
2023/06/30 02:46:14;;;;;;;8.10;3.90;;;;;;;;;;5026594;28;20181;-79
2023/06/30 02:48:40;;;;;;;11.47;4.23;;;;;;;;;;5016192;28;20185;-79
2023/06/30 02:51:09;;;;;;;12.83;4.63;;;;;;;;;;5015681;28;20283;-79
2023/06/30 02:53:35;;;;;;;12.47;4.33;;;;;;;;;;5016278;28;20189;-79
2023/06/30 02:56:01;;;;;;;7.63;3.83;;;;;;;;;;5029955;28;20192;-79
2023/06/30 02:58:27;;;;;;;10.13;4.27;;;;;;;;;;5016637;28;20214;-79
2023/06/30 03:00:55;;;;;;;7.87;3.93;;;;;;;;;;5014874;28;20188;-79
2023/06/30 03:03:23;;;;;;;9.70;3.80;;;;;;;;;;5015884;28;20185;-79
2023/06/30 03:05:50;;;;;;;8.03;4.10;;;;;;;;;;5015632;28;20188;-79
2023/06/30 03:08:16;;;;;;;10.20;3.80;;;;;;;;;;5032006;28;20214;-84
2023/06/30 03:10:42;;;;;;;8.87;3.93;;;;;;;;;;5031996;28;20270;-84
2023/06/30 03:13:08;;;;;;;8.93;3.73;;;;;;;;;;5032325;28;20251;-84
2023/06/30 03:15:34;;;;;;;8.70;3.53;;;;;;;;;;5015354;28;20227;-84
2023/06/30 03:18:00;;;;;;;6.07;3.87;;;;;;;;;;5032589;28;20227;-84
2023/06/30 03:20:26;;;;;;;13.27;3.80;;;;;;;;;;5032354;28;20181;-84
2023/06/30 03:22:54;;;;;;;10.50;4.23;;;;;;;;;;5031736;28;20282;-84
2023/06/30 03:25:21;;;;;;;10.37;4.23;;;;;;;;;;5016783;28;20252;-82
2023/06/30 03:27:47;;;;;;;8.37;3.60;;;;;;;;;;5015614;28;20219;-79
2023/06/30 03:30:13;;;;;;;13.63;3.93;;;;;;;;;;5021306;28;20180;-79
2023/06/30 03:32:39;;;;;;;9.70;4.03;;;;;;;;;;5014859;28;20213;-79
2023/06/30 03:35:05;;;;;;;10.97;4.00;;;;;;;;;;5012133;28;20220;-79
2023/06/30 03:37:31;;;;;;;7.40;3.70;;;;;;;;;;5014234;28;20292;-79
2023/06/30 03:39:58;;;;;;;11.87;4.27;;;;;;;;;;5030104;28;20217;-80
2023/06/30 03:42:24;;;;;;;8.50;4.17;;;;;;;;;;5017001;28;20196;-80
2023/06/30 03:44:50;;;;;;;7.43;3.47;;;;;;;;;;5035026;28;20180;-79
2023/06/30 03:47:16;;;;;;;8.80;4.00;;;;;;;;;;5017957;28;20244;-81
2023/06/30 03:49:42;;;;;;;10.03;3.97;;;;;;;;;;5018803;28;20268;-80
2023/06/30 03:52:08;;;;;;;9.13;3.83;;;;;;;;;;5033872;28;20184;-79
2023/06/30 03:54:34;;;;;;;6.57;3.53;;;;;;;;;;5034008;28;20192;-79
2023/06/30 03:57:00;;;;;;;7.93;3.40;;;;;;;;;;5017905;28;20191;-79
2023/06/30 03:59:26;;;;;;;7.07;3.50;;;;;;;;;;5018392;28;20205;-82
2023/06/30 04:01:53;;;;;;;8.47;3.70;;;;;;;;;;5018068;28;20181;-82
2023/06/30 04:04:22;;;;;;;8.40;4.27;;;;;;;;;;5032992;28;20262;-82
2023/06/30 04:06:48;;;;;;;9.20;3.57;;;;;;;;;;5033041;28;20189;-82
2023/06/30 04:09:15;;;;;;;8.43;3.57;;;;;;;;;;5017859;28;20181;-82
2023/06/30 04:11:41;;;;;;;7.83;3.50;;;;;;;;;;5017945;28;20201;-81
2023/06/30 04:14:07;;;;;;;8.30;3.47;;;;;;;;;;5032179;28;20271;-80
2023/06/30 04:16:35;;;;;;;7.17;3.13;;;;;;;;;;5017916;28;20227;-79
2023/06/30 04:19:02;;;;;;;8.20;3.50;;;;;;;;;;5033064;28;20216;-80
2023/06/30 04:21:27;;;;;;;4.97;2.73;;;;;;;;;;5034811;28;20183;-80
2023/06/30 04:23:53;;;;;;;7.43;3.40;;;;;;;;;;5034488;28;20232;-82
2023/06/30 04:26:20;;;;;;;11.83;3.90;;;;;;;;;;5034540;28;20196;-82
2023/06/30 04:28:46;;;;;;;9.73;3.70;;;;;;;;;;5047243;28;20209;-82
2023/06/30 04:31:12;;;;;;;8.10;3.80;;;;;;;;;;5015158;28;20181;-81
2023/06/30 04:33:38;;;;;;;8.53;3.40;;;;;;;;;;5014910;28;20216;-79
2023/06/30 04:36:06;;;;;;;6.40;3.30;;;;;;;;;;5015663;28;20182;-80
2023/06/30 04:38:32;;;;;;;8.00;3.28;;;;;;;;;;4998835;28;20510;-79
2023/06/30 04:40:59;;;;;;;9.73;4.00;;;;;;;;;;4998834;28;20256;-80
2023/06/30 04:43:25;;;;;;;7.43;3.53;;;;;;;;;;5023559;28;20172;-80
2023/06/30 04:45:51;;;;;;;7.83;3.40;;;;;;;;;;5018498;28;20168;-79
2023/06/30 04:48:17;;;;;;;7.30;3.40;;;;;;;;;;5035127;28;20178;-82
2023/06/30 04:50:43;;;;;;;9.60;3.47;;;;;;;;;;5035831;28;20253;-82
2023/06/30 04:53:09;;;;;;;7.60;3.43;;;;;;;;;;5018135;28;20192;-82
2023/06/30 04:55:35;;;;;;;5.77;2.90;;;;;;;;;;5034957;28;20177;-81
2023/06/30 04:58:01;;;;;;;6.77;3.13;;;;;;;;;;5034908;28;20211;-81
2023/06/30 05:00:27;;;;;;;8.33;3.33;;;;;;;;;;5018192;28;20258;-81
2023/06/30 05:02:54;;;;;;;4.53;2.80;;;;;;;;;;5034912;28;20177;-82
2023/06/30 05:05:20;;;;;;;6.10;3.00;;;;;;;;;;5034434;28;20187;-79
2023/06/30 05:07:46;;;;;;;6.27;3.13;;;;;;;;;;5018300;28;20180;-79
2023/06/30 05:10:12;;;;;;;8.53;3.00;;;;;;;;;;5017909;28;20177;-79
2023/06/30 05:12:38;;;;;;;8.70;3.07;;;;;;;;;;5034538;28;20200;-79
2023/06/30 05:15:05;;;;;;;7.83;3.50;;;;;;;;;;5034019;28;20184;-79
2023/06/30 05:17:31;;;;;;;9.47;2.80;;;;;;;;;;5018003;28;20211;-79
2023/06/30 05:19:57;;;;;;;6.63;2.70;;;;;;;;;;5014460;28;20243;-79
2023/06/30 05:22:23;;;;;;;5.80;2.67;;;;;;;;;;5014524;28;20173;-80
2023/06/30 05:24:49;;;;;;;9.93;2.93;;;;;;;;;;5011852;28;20236;-80
2023/06/30 05:27:15;;;;;;;5.23;2.60;;;;;;;;;;5017916;28;20204;-80
2023/06/30 05:29:41;;;;;;;7.90;3.00;;;;;;;;;;5032168;28;20189;-80
2023/06/30 05:32:08;;;;;;;7.97;2.77;;;;;;;;;;5017967;28;20188;-80
2023/06/30 05:34:34;;;;;;;7.53;2.60;;;;;;;;;;5033700;28;20248;-79
2023/06/30 05:37:00;;;;;;;8.23;2.63;;;;;;;;;;5033795;28;20203;-79
2023/06/30 05:39:26;;;;;;;8.57;2.50;;;;;;;;;;5017285;28;20217;-82
2023/06/30 05:41:52;;;;;;;6.00;2.20;;;;;;;;;;5033515;28;20185;-82
2023/06/30 05:44:18;;;;;;;7.43;2.50;;;;;;;;;;5033694;28;20181;-82
2023/06/30 05:46:44;;;;;;;7.13;2.17;;;;;;;;;;5017428;28;20181;-82
2023/06/30 05:49:10;;;;;;;7.17;2.30;;;;;;;;;;5033543;28;20271;-82
2023/06/30 05:51:36;;;;;;;6.33;2.70;;;;;;;;;;5017277;28;20187;-79
2023/06/30 05:54:03;;;;;;;8.37;2.70;;;;;;;;;;5032924;28;20252;-86
2023/06/30 05:56:29;;;;;;;6.40;2.40;;;;;;;;;;5033578;28;20429;-85
2023/06/30 05:58:55;;;;;;;6.60;2.50;;;;;;;;;;5032798;28;20212;-86
2023/06/30 06:01:21;;;;;;;5.97;2.53;;;;;;;;;;5006940;28;20212;-86
2023/06/30 06:03:48;;;;;;;6.93;2.40;;;;;;;;;;5031174;28;20180;-86
2023/06/30 06:06:14;;;;;;;5.43;2.67;;;;;;;;;;5024731;28;20248;-85
2023/06/30 06:08:43;;;;;;;7.03;2.58;;;;;;;;;;5033995;28;20441;-85
2023/06/30 06:11:09;;;;;;;10.43;2.90;;;;;;;;;;5018974;28;20200;-79
2023/06/30 06:13:35;;;;;;;8.20;2.70;;;;;;;;;;5013465;28;20231;-79
2023/06/30 06:16:02;;;;;;;8.53;2.70;;;;;;;;;;5028769;28;20188;-79
2023/06/30 06:18:28;;;;;;;11.43;3.00;;;;;;;;;;5030632;28;20299;-79
2023/06/30 06:20:55;;;;;;;8.07;2.90;;;;;;;;;;5015526;28;20270;-79
2023/06/30 06:23:21;;;;;;;7.43;2.63;;;;;;;;;;5032511;28;20326;-79
2023/06/30 06:25:48;;;;;;;8.13;2.50;;;;;;;;;;5032329;28;20200;-79
2023/06/30 06:28:14;;;;;;;7.50;2.63;;;;;;;;;;5026816;28;20189;-82
2023/06/30 06:30:42;;;;;;;7.87;2.40;;;;;;;;;;5033515;28;20259;-82
2023/06/30 06:33:08;;;;;;;7.63;2.70;;;;;;;;;;5033117;28;20207;-82
2023/06/30 06:35:34;;;;;;;8.60;2.40;;;;;;;;;;5033516;28;20189;-82
2023/06/30 06:38:00;;;;;;;7.83;2.50;;;;;;;;;;5033841;28;20173;-82
2023/06/30 06:40:27;;;;;;;8.40;2.23;;;;;;;;;;5032948;28;20206;-82
2023/06/30 06:42:54;;;;;;;6.37;2.43;;;;;;;;;;5032916;28;20181;-82
2023/06/30 06:45:20;;;;;;;8.40;3.03;;;;;;;;;;5015937;28;20275;-79
2023/06/30 06:48:05;;;;;;;6.93;2.60;;;;;;;;;;5033918;28;20287;-79
2023/06/30 06:50:31;;;;;;;5.13;2.33;;;;;;;;;;5017029;28;20192;-79
2023/06/30 06:52:57;;;;;;;7.87;2.67;;;;;;;;;;5022614;28;20192;-79
2023/06/30 06:55:23;;;;;;;10.17;2.67;;;;;;;;;;5033834;28;20181;-79
2023/06/30 06:57:49;;;;;;;4.87;2.40;;;;;;;;;;5033798;28;20180;-82
2023/06/30 07:00:18;;;;;;;4.87;2.80;;;;;;;;;;5013802;28;20185;-81
2023/06/30 07:02:44;;;;;;;7.37;2.50;;;;;;;;;;5025375;28;20208;-79
2023/06/30 07:05:10;;;;;;;5.93;2.63;;;;;;;;;;5031462;28;20180;-81
2023/06/30 07:07:36;;;;;;;7.37;2.20;;;;;;;;;;5016061;28;20185;-82
2023/06/30 07:10:02;;;;;;;6.07;2.73;;;;;;;;;;5024866;28;20280;-82
2023/06/30 07:12:29;;;;;;;7.00;2.77;;;;;;;;;;5030397;28;20181;-82
2023/06/30 07:14:55;;;;;;;6.37;2.67;;;;;;;;;;5016712;28;20184;-82
2023/06/30 07:17:21;;;;;;;4.30;2.23;;;;;;;;;;5036340;28;20199;-86
2023/06/30 07:19:47;;;;;;;6.03;2.60;;;;;;;;;;5016566;28;20224;-85
2023/06/30 07:22:13;;;;;;;6.93;2.13;;;;;;;;;;5022443;22;20185;-83
2023/06/30 07:24:40;;;;;;;8.00;2.30;;;;;;;;;;4954539;29;20204;-81
2023/06/30 07:27:06;;;;;;;3.87;1.90;;;;;;;;;;4958076;28;20179;-82
2023/06/30 07:29:32;;;;;;;3.83;2.10;;;;;;;;;;4942141;29;20186;-81
2023/06/30 07:31:58;;;;;;;6.60;2.37;;;;;;;;;;4957531;29;20182;-81
2023/06/30 07:34:24;;;;;;;4.77;2.03;;;;;;;;;;4939872;29;20180;-81
2023/06/30 07:36:51;;;;;;;7.57;2.10;;;;;;;;;;4957553;28;20179;-81
2023/06/30 07:39:17;;;;;;;4.70;1.93;;;;;;;;;;4957578;28;20217;-81
2023/06/30 07:41:43;;;;;;;5.70;2.00;;;;;;;;;;4960674;28;20183;-81
2023/06/30 07:44:11;;;;;;;5.33;1.90;;;;;;;;;;4957417;28;20194;-81
2023/06/30 07:46:37;;;;;;;4.33;2.27;;;;;;;;;;4957711;28;20183;-81
2023/06/30 07:49:04;;;;;;;5.30;2.27;;;;;;;;;;4957777;28;20230;-81
2023/06/30 07:51:30;;;;;;;5.47;2.13;;;;;;;;;;4957798;28;20231;-89
2023/06/30 07:53:57;;;;;;;5.63;1.97;;;;;;;;;;4957862;28;20266;-89
2023/06/30 07:56:23;;;;;;;4.50;1.80;;;;;;;;;;4957783;28;20183;-90
2023/06/30 07:58:49;;;;;;;6.97;2.10;;;;;;;;;;4958002;28;20290;-90
2023/06/30 08:01:15;;;;;;;4.97;1.90;;;;;;;;;;4974271;28;20187;-90
2023/06/30 08:03:44;;;;;;;3.67;1.70;;;;;;;;;;4977619;28;20210;-90
2023/06/30 08:06:10;;;;;;;3.60;1.63;;;;;;;;;;4961323;28;20191;-90
2023/06/30 08:08:36;;;;;;;8.43;1.93;;;;;;;;;;4976908;28;20185;-82
2023/06/30 08:11:02;;;;;;;4.13;1.60;;;;;;;;;;4961010;28;20183;-82
2023/06/30 08:13:28;;;;;;;3.47;1.70;;;;;;;;;;4960726;28;20190;-82
2023/06/30 08:15:54;;;;;;;3.73;1.90;;;;;;;;;;4972675;28;20183;-82
2023/06/30 08:18:20;;;;;;;3.60;1.87;;;;;;;;;;4973403;28;20226;-82
2023/06/30 08:20:46;;;;;;;3.17;1.70;;;;;;;;;;4957597;28;20242;-82
2023/06/30 08:23:14;;;;;;;3.10;1.80;;;;;;;;;;4957365;28;20227;-82
2023/06/30 08:25:40;;;;;;;3.67;1.50;;;;;;;;;;4973434;28;20187;-82
2023/06/30 08:28:06;;;;;;;6.60;1.60;;;;;;;;;;4972517;28;20187;-83
2023/06/30 08:30:32;;;;;;;4.20;1.80;;;;;;;;;;4957123;28;20187;-83
2023/06/30 08:32:58;;;;;;;3.70;1.50;;;;;;;;;;4957052;28;20183;-82
2023/06/30 08:35:24;;;;;;;4.93;1.87;;;;;;;;;;4973264;28;20230;-82
2023/06/30 08:37:50;;;;;;;7.77;2.00;;;;;;;;;;4956918;28;20187;-83
2023/06/30 08:40:26;;;;;;;4.03;1.70;;;;;;;;;;4958056;28;20179;-83
2023/06/30 08:42:53;;;;;;;3.80;1.77;;;;;;;;;;4972873;28;20205;-82
2023/06/30 08:45:19;;;;;;;3.13;1.90;;;;;;;;;;4956701;28;20211;-82
2023/06/30 08:47:45;;;;;;;4.60;1.90;;;;;;;;;;4973041;28;20187;-82
2023/06/30 08:50:11;;;;;;;3.70;1.60;;;;;;;;;;4972957;28;20186;-82
2023/06/30 08:52:37;;;;;;;3.33;1.60;;;;;;;;;;4957811;28;20186;-82
2023/06/30 08:55:03;;;;;;;6.70;1.90;;;;;;;;;;4957355;28;20191;-82
2023/06/30 08:57:30;;;;;;;2.50;1.60;;;;;;;;;;4956579;28;20188;-82
2023/06/30 08:59:56;;;;;;;3.23;1.60;;;;;;;;;;4956589;28;20215;-83
2023/06/30 09:02:23;;;;;;;4.25;1.55;;;;;;;;;;4972822;28;20180;-82
2023/06/30 09:04:49;;;;;;;5.13;1.63;;;;;;;;;;4956617;28;20180;-83
2023/06/30 09:07:23;;;;;;;5.40;1.60;;;;;;;;;;4972526;28;20176;-83
2023/06/30 09:09:53;;;;;;;3.05;1.65;;;;;;;;;;4972446;28;20183;-82
2023/06/30 09:12:19;;;;;;;5.53;1.75;;;;;;;;;;4972405;28;20207;-82
2023/06/30 09:14:45;;;;;;;2.97;1.40;;;;;;;;;;4972634;28;20175;-91
2023/06/30 09:17:11;;;;;;;5.00;1.73;;;;;;;;;;4956398;28;20180;-91
2023/06/30 09:19:39;;;;;;;3.00;1.65;;;;;;;;;;4956848;28;20274;-91
2023/06/30 09:22:05;;;;;;;4.93;1.58;;;;;;;;;;4972562;28;20179;-90
2023/06/30 09:24:35;;;;;;;6.40;1.70;;;;;;;;;;4972765;28;20222;-91
2023/06/30 09:27:01;;;;;;;4.63;1.60;;;;;;;;;;4972283;28;20179;-90
2023/06/30 09:29:31;;;;;;;4.15;1.38;;;;;;;;;;4956310;28;20230;-90
2023/06/30 09:32:00;;;;;;;3.03;1.52;;;;;;;;;;4972760;28;20296;-91
2023/06/30 09:34:26;;;;;;;5.07;1.85;;;;;;;;;;4975590;28;20180;-91
2023/06/30 09:36:54;;;;;;;6.60;1.80;;;;;;;;;;4976854;28;20190;-90
2023/06/30 09:39:20;;;;;;;4.95;1.60;;;;;;;;;;4974790;28;20222;-90
2023/06/30 09:41:47;;;;;;;4.20;1.60;;;;;;;;;;4973041;28;20183;-91
2023/06/30 09:44:14;;;;;;;4.20;1.75;;;;;;;;;;4972569;28;20179;-91
2023/06/30 09:46:50;;;;;;;2.58;1.50;;;;;;;;;;4972030;28;20180;-91
2023/06/30 09:49:26;;;;;;;4.80;1.75;;;;;;;;;;4971986;28;20322;-83
2023/06/30 09:51:52;;;;;;;2.80;1.63;;;;;;;;;;4971456;28;20266;-83
2023/06/30 09:54:18;;;;;;;3.92;1.55;;;;;;;;;;4955920;28;20228;-83
2023/06/30 09:56:45;;;;;;;3.60;1.70;;;;;;;;;;4955260;28;20183;-82
2023/06/30 09:59:12;;;;;;;2.75;1.70;;;;;;;;;;4954945;28;20290;-83
2023/06/30 10:01:39;;;;;;;4.60;2.08;;;;;;;;;;4954918;28;20181;-83
2023/06/30 10:04:05;;;;;;;3.15;1.55;;;;;;;;;;4955042;28;20175;-91
2023/06/30 10:06:32;;;;;;;3.85;1.88;;;;;;;;;;4955393;28;20176;-91
2023/06/30 10:08:59;;;;;;;2.80;1.80;;;;;;;;;;4960704;28;20198;-91
2023/06/30 10:11:26;;;;;;;3.42;1.60;;;;;;;;;;4974582;28;20245;-91
2023/06/30 10:13:53;;;;;;;4.45;1.90;;;;;;;;;;4958548;28;20183;-90
2023/06/30 10:16:20;;;;;;;4.22;1.80;;;;;;;;;;4974740;28;20246;-91
2023/06/30 10:18:47;;;;;;;2.78;1.70;;;;;;;;;;4958569;28;20211;-90
2023/06/30 10:21:13;;;;;;;3.78;1.92;;;;;;;;;;4975019;28;20175;-80
2023/06/30 10:23:40;;;;;;;4.20;1.83;;;;;;;;;;4974309;28;20222;-80
2023/06/30 10:26:07;;;;;;;4.43;1.77;;;;;;;;;;4974459;28;20195;-80
2023/06/30 10:28:35;;;;;;;4.65;1.65;;;;;;;;;;4974342;28;20268;-80
2023/06/30 10:31:02;;;;;;;3.33;2.08;;;;;;;;;;4974524;28;20187;-80
2023/06/30 10:33:28;;;;;;;3.65;2.15;;;;;;;;;;4974331;28;20262;-79
2023/06/30 10:35:54;;;;;;;5.35;1.80;;;;;;;;;;4974222;28;20228;-80
2023/06/30 10:38:21;;;;;;;4.90;1.77;;;;;;;;;;4974261;28;20270;-80
2023/06/30 10:40:47;;;;;;;4.50;2.20;;;;;;;;;;4973271;28;20501;-80
2023/06/30 10:43:13;;;;;;;5.50;1.92;;;;;;;;;;4975561;28;20171;-80
2023/06/30 10:45:59;;;;;;;4.55;2.20;;;;;;;;;;4974103;28;20175;-80
2023/06/30 10:48:27;;;;;;;3.13;1.90;;;;;;;;;;4973978;28;20210;-80
2023/06/30 10:50:54;;;;;;;4.38;2.00;;;;;;;;;;4974860;28;20181;-79
2023/06/30 10:53:20;;;;;;;5.70;2.10;;;;;;;;;;4958414;28;20198;-80
2023/06/30 10:55:47;;;;;;;4.43;2.20;;;;;;;;;;4958004;28;20189;-83
2023/06/30 10:58:23;;;;;;;5.57;2.40;;;;;;;;;;4974919;28;20190;-82
2023/06/30 11:01:05;;;;;;;5.40;2.58;;;;;;;;;;4974163;28;20174;-82
2023/06/30 11:04:06;;;;;;;5.53;2.20;;;;;;;;;;4974895;28;20202;-82
2023/06/30 11:06:36;;;;;;;6.85;2.40;;;;;;;;;;4972770;28;20207;-82
2023/06/30 11:09:03;;;;;;;4.07;2.30;;;;;;;;;;4986294;28;20183;-83
2023/06/30 11:11:29;;;;;;;3.38;2.10;;;;;;;;;;4973724;28;20189;-83
2023/06/30 11:14:07;;;;;;;5.78;2.60;;;;;;;;;;4973623;28;20228;-83
2023/06/30 11:16:52;;;;;;;6.07;2.22;;;;;;;;;;4973555;28;20191;-83
2023/06/30 11:19:25;;;;;;;4.57;2.30;;;;;;;;;;4974556;28;20206;-83
2023/06/30 11:22:09;;;;;;;3.78;2.30;;;;;;;;;;4973591;28;20202;-83
2023/06/30 11:24:36;;;;;;;4.97;2.30;;;;;;;;;;4974379;28;20242;-83
2023/06/30 11:27:04;;;;;;;5.22;2.22;;;;;;;;;;4973378;28;20207;-83
2023/06/30 11:29:30;;;;;;;6.35;2.28;;;;;;;;;;4973494;28;20198;-83
2023/06/30 11:31:56;;;;;;;5.45;2.05;;;;;;;;;;4952658;28;20237;-83
2023/06/30 11:34:22;;;;;;;4.78;2.03;;;;;;;;;;4954166;29;20270;-83
2023/06/30 11:36:48;;;;;;;4.40;2.30;;;;;;;;;;4938076;29;20183;-83
2023/06/30 11:39:14;;;;;;;5.60;2.60;;;;;;;;;;4938139;29;20219;-83
2023/06/30 11:41:40;;;;;;;5.47;2.25;;;;;;;;;;4954046;29;20187;-83
2023/06/30 11:44:06;;;;;;;4.93;2.28;;;;;;;;;;4938240;29;20184;-83
2023/06/30 11:46:36;;;;;;;5.20;2.05;;;;;;;;;;4938395;29;20180;-83
2023/06/30 11:49:02;;;;;;;4.93;2.10;;;;;;;;;;4939059;29;20187;-81
2023/06/30 11:51:30;;;;;;;4.43;1.90;;;;;;;;;;4953775;29;20215;-82
2023/06/30 11:53:56;;;;;;;6.68;2.08;;;;;;;;;;4953946;29;20202;-82
2023/06/30 11:56:22;;;;;;;6.10;2.00;;;;;;;;;;4954152;29;20179;-82
2023/06/30 11:58:48;;;;;;;5.05;2.60;;;;;;;;;;4954484;29;20214;-82
2023/06/30 12:01:15;;;;;;;3.63;2.03;;;;;;;;;;4938819;28;20191;-90
2023/06/30 12:03:41;;;;;;;5.55;2.75;;;;;;;;;;4957726;29;20179;-89
2023/06/30 12:06:07;;;;;;;4.03;2.45;;;;;;;;;;4957644;29;20234;-90
2023/06/30 12:08:37;;;;;;;6.50;2.63;;;;;;;;;;4942216;29;20194;-89
2023/06/30 12:11:07;;;;;;;6.80;2.85;;;;;;;;;;4959375;28;20191;-89
2023/06/30 12:13:33;;;;;;;5.30;2.10;;;;;;;;;;4957614;29;20183;-88
2023/06/30 12:16:02;;;;;;;4.40;2.30;;;;;;;;;;4957359;29;20259;-90
2023/06/30 12:18:36;;;;;;;3.55;2.40;;;;;;;;;;4957261;29;20203;-79
2023/06/30 12:21:02;;;;;;;4.00;2.53;;;;;;;;;;4958377;29;20262;-80
2023/06/30 12:23:29;;;;;;;3.33;2.45;;;;;;;;;;4957446;29;20255;-79
2023/06/30 12:25:56;;;;;;;5.70;2.92;;;;;;;;;;4958197;29;20164;-79
2023/06/30 12:28:22;;;;;;;5.60;2.50;;;;;;;;;;4957743;29;20176;-79
2023/06/30 12:30:48;;;;;;;4.43;2.80;;;;;;;;;;4957062;29;20246;-79
2023/06/30 12:33:19;;;;;;;3.28;2.65;;;;;;;;;;4957310;29;20191;-79
2023/06/30 12:35:46;;;;;;;7.35;2.80;;;;;;;;;;4957122;29;20218;-82
2023/06/30 12:38:13;;;;;;;3.58;2.20;;;;;;;;;;4957380;29;20183;-82
2023/06/30 12:40:40;;;;;;;4.47;2.95;;;;;;;;;;4958596;29;20168;-82
2023/06/30 12:43:06;;;;;;;6.90;2.95;;;;;;;;;;4957094;29;20176;-82
2023/06/30 12:45:32;;;;;;;8.30;2.83;;;;;;;;;;4957168;29;20179;-82
2023/06/30 12:47:58;;;;;;;5.03;2.50;;;;;;;;;;4958045;29;20210;-82
2023/06/30 12:50:24;;;;;;;4.50;2.50;;;;;;;;;;4957056;29;20250;-82
2023/06/30 12:52:50;;;;;;;5.15;2.70;;;;;;;;;;4957048;29;20191;-82
2023/06/30 12:55:16;;;;;;;7.22;2.88;;;;;;;;;;4957188;29;20183;-82
2023/06/30 12:57:42;;;;;;;4.20;2.80;;;;;;;;;;4956659;29;20183;-82
2023/06/30 13:00:12;;;;;;;3.65;2.65;;;;;;;;;;4956665;29;20215;-82
2023/06/30 13:02:38;;;;;;;8.48;2.90;;;;;;;;;;4956505;29;20176;-82
2023/06/30 13:05:06;;;;;;;6.03;2.65;;;;;;;;;;4956599;29;20246;-81
2023/06/30 13:07:32;;;;;;;7.53;2.65;;;;;;;;;;4957645;29;20178;-89
2023/06/30 13:09:58;;;;;;;4.95;2.70;;;;;;;;;;4956858;29;20198;-89
2023/06/30 13:12:29;;;;;;;5.22;2.88;;;;;;;;;;4956734;29;20295;-89
2023/06/30 13:14:55;;;;;;;4.97;2.83;;;;;;;;;;4957085;28;20183;-88
2023/06/30 13:17:21;;;;;;;5.68;2.60;;;;;;;;;;4956923;29;20175;-88
2023/06/30 13:19:47;;;;;;;6.72;2.75;;;;;;;;;;4956480;29;20358;-90
2023/06/30 13:22:14;;;;;;;3.95;2.63;;;;;;;;;;4981429;23;20191;-84
2023/06/30 13:24:40;;;;;;;3.08;2.60;;;;;;;;;;4997392;28;20232;-84
2023/06/30 13:27:07;;;;;;;4.60;2.45;;;;;;;;;;5013908;28;20255;-85
2023/06/30 13:29:34;;;;;;;6.32;2.65;;;;;;;;;;4997870;28;20181;-85
2023/06/30 13:32:00;;;;;;;4.15;2.40;;;;;;;;;;5013800;28;20178;-84
2023/06/30 13:34:28;;;;;;;5.15;2.60;;;;;;;;;;5013795;28;20173;-85
2023/06/30 13:36:54;;;;;;;4.85;2.63;;;;;;;;;;5013958;28;20172;-84
2023/06/30 13:39:20;;;;;;;4.68;2.47;;;;;;;;;;4997559;28;20241;-85
2023/06/30 13:41:46;;;;;;;6.82;2.92;;;;;;;;;;5014006;28;20184;-84
2023/06/30 13:44:12;;;;;;;4.43;2.88;;;;;;;;;;5013795;28;20185;-84
2023/06/30 13:46:38;;;;;;;7.35;3.08;;;;;;;;;;4997692;28;20177;-84
2023/06/30 13:49:04;;;;;;;5.53;2.55;;;;;;;;;;4997594;28;20181;-85
2023/06/30 13:51:30;;;;;;;6.65;2.97;;;;;;;;;;5013436;28;20181;-85
2023/06/30 13:53:56;;;;;;;4.55;2.72;;;;;;;;;;5013893;28;20213;-85
2023/06/30 13:56:23;;;;;;;5.18;2.63;;;;;;;;;;4997283;28;20188;-84
2023/06/30 13:58:49;;;;;;;3.85;2.30;;;;;;;;;;5013878;28;20197;-85
2023/06/30 14:01:15;;;;;;;5.55;3.45;;;;;;;;;;5013886;28;20180;-85
2023/06/30 14:03:42;;;;;;;3.40;3.10;;;;;;;;;;5014687;28;20173;-85
2023/06/30 14:06:08;;;;;;;4.30;2.60;;;;;;;;;;5013552;28;20223;-85
2023/06/30 14:08:34;;;;;;;5.25;3.15;;;;;;;;;;5013617;28;20201;-85
2023/06/30 14:11:01;;;;;;;4.78;3.35;;;;;;;;;;5008276;28;20217;-85
2023/06/30 14:13:27;;;;;;;5.70;2.65;;;;;;;;;;5010299;28;20186;-85
2023/06/30 14:15:53;;;;;;;5.47;3.33;;;;;;;;;;5010934;28;20182;-85
2023/06/30 14:18:19;;;;;;;7.32;2.75;;;;;;;;;;5010568;28;20181;-86
2023/06/30 14:20:47;;;;;;;4.45;2.70;;;;;;;;;;5010846;28;20178;-86
2023/06/30 14:23:13;;;;;;;7.20;3.10;;;;;;;;;;4993843;28;20230;-86
2023/06/30 14:25:40;;;;;;;6.25;2.72;;;;;;;;;;4993524;28;20178;-85
2023/06/30 14:28:06;;;;;;;5.10;2.92;;;;;;;;;;5010492;28;20205;-86
2023/06/30 14:30:34;;;;;;;5.22;2.97;;;;;;;;;;5010687;28;20182;-86
2023/06/30 14:33:02;;;;;;;5.20;3.15;;;;;;;;;;4994012;28;20204;-85
2023/06/30 14:35:29;;;;;;;5.10;3.10;;;;;;;;;;5010020;28;20178;-85
2023/06/30 14:37:55;;;;;;;3.58;3.05;;;;;;;;;;4993378;28;20181;-85
2023/06/30 14:40:24;;;;;;;5.43;3.38;;;;;;;;;;4993306;28;20236;-85